sensor_id;sensor_type;location;lat;lon;timestamp;pressure;altitude;pressure_sealevel;temperature;humidity
54236;BME280;40151;43.606;1.472;2023-01-30T00:00:35;100603.72;;;13.71;49.38
54236;BME280;40151;43.606;1.472;2023-01-30T00:03:00;100610.66;;;13.75;49.33
54236;BME280;40151;43.606;1.472;2023-01-30T00:05:26;100611.53;;;13.74;49.17
54236;BME280;40151;43.606;1.472;2023-01-30T00:07:54;100606.28;;;13.74;49.31
54236;BME280;40151;43.606;1.472;2023-01-30T00:10:20;100609.78;;;13.76;49.30
54236;BME280;40151;43.606;1.472;2023-01-30T00:12:46;100608.03;;;13.75;49.32
54236;BME280;40151;43.606;1.472;2023-01-30T00:15:11;100595.84;;;13.71;49.18
54236;BME280;40151;43.606;1.472;2023-01-30T00:17:37;100606.25;;;13.77;49.27
54236;BME280;40151;43.606;1.472;2023-01-30T00:20:03;100597.53;;;13.75;49.26
54236;BME280;40151;43.606;1.472;2023-01-30T00:22:29;100597.56;;;13.72;49.43
54236;BME280;40151;43.606;1.472;2023-01-30T00:24:55;100595.78;;;13.74;49.27
54236;BME280;40151;43.606;1.472;2023-01-30T00:27:20;100603.63;;;13.77;49.21
54236;BME280;40151;43.606;1.472;2023-01-30T00:29:46;100602.72;;;13.78;49.25
54236;BME280;40151;43.606;1.472;2023-01-30T00:32:11;100600.09;;;13.78;49.36
54236;BME280;40151;43.606;1.472;2023-01-30T00:34:36;100606.22;;;13.80;49.14
54236;BME280;40151;43.606;1.472;2023-01-30T00:37:02;100597.50;;;13.78;49.20
54236;BME280;40151;43.606;1.472;2023-01-30T00:39:27;100602.72;;;13.81;49.33
54236;BME280;40151;43.606;1.472;2023-01-30T00:41:53;100594.84;;;13.79;49.25
54236;BME280;40151;43.606;1.472;2023-01-30T01:13:04;100593.94;;;13.82;49.30
54236;BME280;40151;43.606;1.472;2023-01-30T01:15:31;100585.19;;;13.83;49.21
54236;BME280;40151;43.606;1.472;2023-01-30T01:17:58;100586.09;;;13.79;49.17
54236;BME280;40151;43.606;1.472;2023-01-30T01:20:24;100586.09;;;13.79;49.17
54236;BME280;40151;43.606;1.472;2023-01-30T01:22:54;100592.22;;;13.81;49.29
54236;BME280;40151;43.606;1.472;2023-01-30T01:25:20;100591.34;;;13.79;49.15
54236;BME280;40151;43.606;1.472;2023-01-30T01:27:47;100596.56;;;13.83;49.18
54236;BME280;40151;43.606;1.472;2023-01-30T01:30:13;100589.59;;;13.81;49.19
54236;BME280;40151;43.606;1.472;2023-01-30T06:02:35;100675.78;;;14.12;49.29
54236;BME280;40151;43.606;1.472;2023-01-30T06:05:01;100678.41;;;14.12;49.04
54236;BME280;40151;43.606;1.472;2023-01-30T06:07:26;100681.03;;;14.15;49.12
54236;BME280;40151;43.606;1.472;2023-01-30T06:09:52;100693.25;;;14.16;49.05
54236;BME280;40151;43.606;1.472;2023-01-30T06:12:17;100681.03;;;14.14;49.16
54236;BME280;40151;43.606;1.472;2023-01-30T06:14:43;100688.84;;;14.18;48.87
54236;BME280;40151;43.606;1.472;2023-01-30T06:17:09;100686.28;;;14.14;48.97
54236;BME280;40151;43.606;1.472;2023-01-30T06:19:35;100686.22;;;14.18;49.20
54236;BME280;40151;43.606;1.472;2023-01-30T06:22:00;100694.94;;;14.20;48.97
54236;BME280;40151;43.606;1.472;2023-01-30T06:24:27;100691.47;;;14.18;49.10
54236;BME280;40151;43.606;1.472;2023-01-30T06:26:53;100697.56;;;14.20;48.86
54236;BME280;40151;43.606;1.472;2023-01-30T06:29:18;100694.94;;;14.20;48.85
54236;BME280;40151;43.606;1.472;2023-01-30T06:31:45;100698.50;;;14.16;49.03
54236;BME280;40151;43.606;1.472;2023-01-30T06:34:10;100687.94;;;14.19;49.07
54236;BME280;40151;43.606;1.472;2023-01-30T06:36:36;100688.84;;;14.18;49.01
54236;BME280;40151;43.606;1.472;2023-01-30T06:39:02;100696.72;;;14.18;49.08
54236;BME280;40151;43.606;1.472;2023-01-30T06:41:28;100696.63;;;14.25;49.03
54236;BME280;40151;43.606;1.472;2023-01-30T06:43:54;100680.03;;;14.22;48.89
54236;BME280;40151;43.606;1.472;2023-01-30T06:46:20;100679.19;;;14.20;49.08
54236;BME280;40151;43.606;1.472;2023-01-30T06:48:46;100682.66;;;14.22;49.13
54236;BME280;40151;43.606;1.472;2023-01-30T06:51:11;100686.19;;;14.21;49.03
54236;BME280;40151;43.606;1.472;2023-01-30T06:53:37;100682.63;;;14.24;49.12
54236;BME280;40151;43.606;1.472;2023-01-30T06:56:03;100687.88;;;14.26;48.93
54236;BME280;40151;43.606;1.472;2023-01-30T06:58:29;100691.38;;;14.25;48.98
54236;BME280;40151;43.606;1.472;2023-01-30T07:00:55;100689.59;;;14.27;48.81
54236;BME280;40151;43.606;1.472;2023-01-30T07:05:56;100707.13;;;14.28;48.97
54236;BME280;40151;43.606;1.472;2023-01-30T07:08:23;100700.06;;;14.30;49.06
54236;BME280;40151;43.606;1.472;2023-01-30T07:10:48;100702.72;;;14.28;48.86
54236;BME280;40151;43.606;1.472;2023-01-30T07:13:13;100704.44;;;14.31;48.90
54236;BME280;40151;43.606;1.472;2023-01-30T07:15:39;100720.19;;;14.31;48.99
54236;BME280;40151;43.606;1.472;2023-01-30T07:36:11;100709.69;;;14.31;48.87
54236;BME280;40151;43.606;1.472;2023-01-30T07:49:05;100722.78;;;14.34;49.06
54236;BME280;40151;43.606;1.472;2023-01-30T07:51:31;100721.00;;;14.36;48.82
54236;BME280;40151;43.606;1.472;2023-01-30T07:53:56;100725.38;;;14.35;49.03
54236;BME280;40151;43.606;1.472;2023-01-30T07:56:22;100728.88;;;14.38;48.86
54236;BME280;40151;43.606;1.472;2023-01-30T07:58:50;100729.72;;;14.38;48.67
54236;BME280;40151;43.606;1.472;2023-01-30T08:01:16;100729.72;;;14.38;49.01
54236;BME280;40151;43.606;1.472;2023-01-30T08:03:42;100734.97;;;14.38;49.03
54236;BME280;40151;43.606;1.472;2023-01-30T08:06:10;100732.31;;;14.40;49.08
54236;BME280;40151;43.606;1.472;2023-01-30T08:08:36;100726.22;;;14.39;49.11
54236;BME280;40151;43.606;1.472;2023-01-30T08:11:02;100727.97;;;14.40;48.95
54236;BME280;40151;43.606;1.472;2023-01-30T08:13:27;100734.06;;;14.41;48.93
54236;BME280;40151;43.606;1.472;2023-01-30T08:15:54;100746.28;;;14.43;48.91
54236;BME280;40151;43.606;1.472;2023-01-30T08:18:19;100759.41;;;14.43;48.96
54236;BME280;40151;43.606;1.472;2023-01-30T08:20:45;100743.66;;;14.43;48.93
54236;BME280;40151;43.606;1.472;2023-01-30T08:23:10;100752.44;;;14.42;48.90
54236;BME280;40151;43.606;1.472;2023-01-30T08:25:36;100752.44;;;14.42;48.76
54236;BME280;40151;43.606;1.472;2023-01-30T08:28:03;100769.06;;;14.43;48.79
54236;BME280;40151;43.606;1.472;2023-01-30T08:30:29;100769.91;;;14.46;48.84
54236;BME280;40151;43.606;1.472;2023-01-30T08:32:57;100776.03;;;14.45;48.90
54236;BME280;40151;43.606;1.472;2023-01-30T08:35:23;100782.16;;;14.44;48.98
54236;BME280;40151;43.606;1.472;2023-01-30T08:37:48;100767.28;;;14.45;49.05
54236;BME280;40151;43.606;1.472;2023-01-30T08:40:14;100776.91;;;14.44;48.97
54236;BME280;40151;43.606;1.472;2023-01-30T08:42:42;100780.41;;;14.46;48.83
54236;BME280;40151;43.606;1.472;2023-01-30T08:45:08;100770.78;;;14.45;48.83
54236;BME280;40151;43.606;1.472;2023-01-30T08:47:33;100772.53;;;14.46;49.03
54236;BME280;40151;43.606;1.472;2023-01-30T08:50:00;100765.56;;;14.44;49.10
54236;BME280;40151;43.606;1.472;2023-01-30T08:52:25;100765.53;;;14.45;48.95
54236;BME280;40151;43.606;1.472;2023-01-30T08:54:50;100762.91;;;14.45;49.05
54236;BME280;40151;43.606;1.472;2023-01-30T08:57:16;100763.75;;;14.47;48.96
54236;BME280;40151;43.606;1.472;2023-01-30T08:59:41;100770.78;;;14.45;48.83
54236;BME280;40151;43.606;1.472;2023-01-30T09:02:10;100761.94;;;14.51;48.83
54236;BME280;40151;43.606;1.472;2023-01-30T09:04:35;100764.66;;;14.46;48.74
54236;BME280;40151;43.606;1.472;2023-01-30T09:07:01;100758.44;;;14.50;48.91
54236;BME280;40151;43.606;1.472;2023-01-30T09:09:28;100759.34;;;14.49;48.87
54236;BME280;40151;43.606;1.472;2023-01-30T09:11:53;100761.13;;;14.47;48.86
54236;BME280;40151;43.606;1.472;2023-01-30T09:14:19;100774.19;;;14.50;48.86
54236;BME280;40151;43.606;1.472;2023-01-30T09:16:45;100776.81;;;14.50;48.93
54236;BME280;40151;43.606;1.472;2023-01-30T09:19:11;100776.81;;;14.50;48.78
54236;BME280;40151;43.606;1.472;2023-01-30T09:21:36;100789.94;;;14.52;48.96
54236;BME280;40151;43.606;1.472;2023-01-30T09:24:03;100783.88;;;14.48;48.85
54236;BME280;40151;43.606;1.472;2023-01-30T09:26:29;100789.94;;;14.54;48.94
54236;BME280;40151;43.606;1.472;2023-01-30T09:28:54;100799.56;;;14.53;48.77
54236;BME280;40151;43.606;1.472;2023-01-30T09:31:20;100811.84;;;14.53;48.55
54236;BME280;40151;43.606;1.472;2023-01-30T09:33:45;100809.22;;;14.54;48.63
54236;BME280;40151;43.606;1.472;2023-01-30T09:36:11;100812.66;;;14.56;48.90
54236;BME280;40151;43.606;1.472;2023-01-30T09:38:36;100810.06;;;14.55;48.88
54236;BME280;40151;43.606;1.472;2023-01-30T09:41:30;100811.78;;;14.56;48.88
54236;BME280;40151;43.606;1.472;2023-01-30T09:46:47;100816.13;;;14.58;48.59
54236;BME280;40151;43.606;1.472;2023-01-30T09:54:33;100821.44;;;14.57;48.59
54236;BME280;40151;43.606;1.472;2023-01-30T09:57:10;100823.16;;;14.58;48.84
54236;BME280;40151;43.606;1.472;2023-01-30T10:04:50;100831.91;;;14.58;48.83
54236;BME280;40151;43.606;1.472;2023-01-30T10:13:09;100829.25;;;14.61;48.54
54236;BME280;40151;43.606;1.472;2023-01-30T10:18:55;100843.22;;;14.63;48.67
54236;BME280;40151;43.606;1.472;2023-01-30T10:27:02;100834.50;;;14.63;48.56
54236;BME280;40151;43.606;1.472;2023-01-30T10:29:36;100839.75;;;14.61;48.66
54236;BME280;40151;43.606;1.472;2023-01-30T10:32:14;100842.38;;;14.63;48.74
54236;BME280;40151;43.606;1.472;2023-01-30T10:34:46;100840.59;;;14.63;48.74
54236;BME280;40151;43.606;1.472;2023-01-30T10:40:20;100836.22;;;14.64;48.52
54236;BME280;40151;43.606;1.472;2023-01-30T10:48:58;100820.41;;;14.67;48.69
54236;BME280;40151;43.606;1.472;2023-01-30T11:00:01;100813.41;;;14.69;48.75
54236;BME280;40151;43.606;1.472;2023-01-30T11:05:25;100812.44;;;14.73;48.72
54236;BME280;40151;43.606;1.472;2023-01-30T11:07:52;100813.34;;;14.72;48.70
54236;BME280;40151;43.606;1.472;2023-01-30T11:10:22;100801.97;;;14.72;48.35
54236;BME280;40151;43.606;1.472;2023-01-30T11:12:52;100799.31;;;14.73;48.59
54236;BME280;40151;43.606;1.472;2023-01-30T11:15:20;100816.88;;;14.74;48.58
54236;BME280;40151;43.606;1.472;2023-01-30T11:17:49;100795.84;;;14.74;48.63
54236;BME280;40151;43.606;1.472;2023-01-30T11:20:16;100797.59;;;14.75;48.49
54236;BME280;40151;43.606;1.472;2023-01-30T11:22:48;100792.28;;;14.79;48.62
54236;BME280;40151;43.606;1.472;2023-01-30T11:25:17;100798.41;;;14.77;48.47
54236;BME280;40151;43.606;1.472;2023-01-30T11:27:51;100798.41;;;14.77;48.43
54236;BME280;40151;43.606;1.472;2023-01-30T11:30:19;100787.91;;;14.79;48.47
54236;BME280;40151;43.606;1.472;2023-01-30T11:32:47;100790.50;;;14.81;48.64
54236;BME280;40151;43.606;1.472;2023-01-30T11:37:43;100789.63;;;14.82;48.84
54236;BME280;40151;43.606;1.472;2023-01-30T11:40:26;100791.34;;;14.81;48.55
54236;BME280;40151;43.606;1.472;2023-01-30T11:43:02;100789.59;;;14.83;48.37
54236;BME280;40151;43.606;1.472;2023-01-30T11:45:29;100784.34;;;14.82;48.43
54236;BME280;40151;43.606;1.472;2023-01-30T11:48:01;100785.19;;;14.84;48.47
54236;BME280;40151;43.606;1.472;2023-01-30T11:50:45;100781.66;;;14.85;48.24
54236;BME280;40151;43.606;1.472;2023-01-30T11:53:33;100774.69;;;14.84;48.71
54236;BME280;40151;43.606;1.472;2023-01-30T11:59:02;100769.41;;;14.87;48.54
54236;BME280;40151;43.606;1.472;2023-01-30T12:01:34;100771.13;;;14.88;48.41
54236;BME280;40151;43.606;1.472;2023-01-30T12:04:05;100774.59;;;14.90;48.43
54236;BME280;40151;43.606;1.472;2023-01-30T12:06:35;100765.81;;;14.91;48.41
54236;BME280;40151;43.606;1.472;2023-01-30T12:09:02;100756.19;;;14.90;48.42
54236;BME280;40151;43.606;1.472;2023-01-30T12:13:58;100762.31;;;14.92;48.41
54236;BME280;40151;43.606;1.472;2023-01-30T12:16:47;100755.28;;;14.91;48.56
54236;BME280;40151;43.606;1.472;2023-01-30T12:24:34;100751.75;;;14.95;48.61
54236;BME280;40151;43.606;1.472;2023-01-30T12:27:24;100758.72;;;14.96;48.56
54236;BME280;40151;43.606;1.472;2023-01-30T12:30:07;100755.19;;;14.97;48.48
54236;BME280;40151;43.606;1.472;2023-01-30T12:32:36;100749.13;;;14.95;48.56
54236;BME280;40151;43.606;1.472;2023-01-30T12:35:13;100749.94;;;14.97;48.52
54236;BME280;40151;43.606;1.472;2023-01-30T12:37:53;100733.31;;;14.97;48.42
54236;BME280;40151;43.606;1.472;2023-01-30T12:40:54;100734.19;;;14.97;48.52
54236;BME280;40151;43.606;1.472;2023-01-30T12:43:48;100735.03;;;14.99;48.48
54236;BME280;40151;43.606;1.472;2023-01-30T12:49:15;100720.09;;;15.01;48.41
54236;BME280;40151;43.606;1.472;2023-01-30T12:52:13;100716.56;;;15.02;48.73
54236;BME280;40151;43.606;1.472;2023-01-30T13:00:28;100690.25;;;15.06;48.48
54236;BME280;40151;43.606;1.472;2023-01-30T13:05:51;100695.50;;;15.06;48.62
54236;BME280;40151;43.606;1.472;2023-01-30T13:15:47;100679.66;;;15.09;48.42
54236;BME280;40151;43.606;1.472;2023-01-30T13:21:11;100680.53;;;15.11;48.51
54236;BME280;40151;43.606;1.472;2023-01-30T13:26:10;100671.75;;;15.12;48.49
54236;BME280;40151;43.606;1.472;2023-01-30T13:28:40;100662.06;;;15.14;48.74
54236;BME280;40151;43.606;1.472;2023-01-30T13:31:11;100674.38;;;15.12;48.63
54236;BME280;40151;43.606;1.472;2023-01-30T13:33:41;100674.38;;;15.12;48.70
54236;BME280;40151;43.606;1.472;2023-01-30T13:38:33;100672.56;;;15.14;48.74
54236;BME280;40151;43.606;1.472;2023-01-30T13:41:01;100667.28;;;15.17;48.63
54236;BME280;40151;43.606;1.472;2023-01-30T13:43:36;100670.75;;;15.19;48.68
54236;BME280;40151;43.606;1.472;2023-01-30T13:46:07;100660.28;;;15.16;48.39
54236;BME280;40151;43.606;1.472;2023-01-30T13:53:50;100654.09;;;15.19;48.71
54236;BME280;40151;43.606;1.472;2023-01-30T14:12:46;100652.31;;;15.21;48.83
54236;BME280;40151;43.606;1.472;2023-01-30T14:17:38;100664.53;;;15.23;48.66
54236;BME280;40151;43.606;1.472;2023-01-30T14:20:15;100661.03;;;15.23;48.62
54236;BME280;40151;43.606;1.472;2023-01-30T14:22:52;100669.72;;;15.26;48.80
54236;BME280;40151;43.606;1.472;2023-01-30T14:27:50;100670.59;;;15.28;48.55
54236;BME280;40151;43.606;1.472;2023-01-30T14:36:31;100663.56;;;15.29;48.48
54236;BME280;40151;43.606;1.472;2023-01-30T14:38:36;100661.78;;;15.31;48.45
54236;BME280;40151;43.606;1.472;2023-01-30T14:54:01;100638.06;;;15.33;48.70
54236;BME280;40151;43.606;1.472;2023-01-30T15:16:35;100630.13;;;15.36;48.69
54236;BME280;40151;43.606;1.472;2023-01-30T15:18:42;100650.22;;;15.40;48.67
54236;BME280;40151;43.606;1.472;2023-01-30T15:26:44;100644.97;;;15.40;48.42
54236;BME280;40151;43.606;1.472;2023-01-30T15:29:28;100643.16;;;15.42;48.37
54236;BME280;40151;43.606;1.472;2023-01-30T15:32:01;100644.06;;;15.41;48.30
54236;BME280;40151;43.606;1.472;2023-01-30T15:34:31;100648.34;;;15.45;48.57
54236;BME280;40151;43.606;1.472;2023-01-30T15:36:58;100635.28;;;15.42;48.35
54236;BME280;40151;43.606;1.472;2023-01-30T15:39:26;100638.72;;;15.44;48.63
54236;BME280;40151;43.606;1.472;2023-01-30T15:41:53;100640.47;;;15.45;48.28
54236;BME280;40151;43.606;1.472;2023-01-30T15:52:21;100651.81;;;15.49;48.15
54236;BME280;40151;43.606;1.472;2023-01-30T15:54:52;100660.56;;;15.48;48.26
54236;BME280;40151;43.606;1.472;2023-01-30T15:57:29;100665.00;;;15.47;48.51
54236;BME280;40151;43.606;1.472;2023-01-30T15:59:56;100665.81;;;15.49;48.45
54236;BME280;40151;43.606;1.472;2023-01-30T16:02:27;100658.00;;;15.46;48.39
54236;BME280;40151;43.606;1.472;2023-01-30T16:07:30;100665.84;;;15.48;48.38
54236;BME280;40151;43.606;1.472;2023-01-30T16:09:57;100670.19;;;15.50;48.48
54236;BME280;40151;43.606;1.472;2023-01-30T16:12:27;100668.44;;;15.49;48.53
54236;BME280;40151;43.606;1.472;2023-01-30T16:14:53;100674.63;;;15.47;48.27
54236;BME280;40151;43.606;1.472;2023-01-30T16:17:28;100676.31;;;15.51;48.42
54236;BME280;40151;43.606;1.472;2023-01-30T16:19:56;100673.66;;;15.52;48.47
54236;BME280;40151;43.606;1.472;2023-01-30T16:22:24;100676.31;;;15.52;48.36
54236;BME280;40151;43.606;1.472;2023-01-30T16:24:52;100675.41;;;15.52;48.50
54236;BME280;40151;43.606;1.472;2023-01-30T16:27:31;100684.22;;;15.51;48.48
54236;BME280;40151;43.606;1.472;2023-01-30T16:30:00;100689.41;;;15.54;48.40
54236;BME280;40151;43.606;1.472;2023-01-30T16:32:30;100691.19;;;15.53;48.50
54236;BME280;40151;43.606;1.472;2023-01-30T16:37:49;100693.81;;;15.53;48.47
54236;BME280;40151;43.606;1.472;2023-01-30T16:40:20;100699.91;;;15.54;48.36
54236;BME280;40151;43.606;1.472;2023-01-30T16:42:57;100696.38;;;15.56;48.31
54236;BME280;40151;43.606;1.472;2023-01-30T16:48:33;100713.03;;;15.57;48.43
54236;BME280;40151;43.606;1.472;2023-01-30T16:53:32;100713.06;;;15.55;48.45
54236;BME280;40151;43.606;1.472;2023-01-30T16:56:00;100715.66;;;15.59;48.22
54236;BME280;40151;43.606;1.472;2023-01-30T16:58:30;100714.84;;;15.55;48.50
54236;BME280;40151;43.606;1.472;2023-01-30T17:00:59;100722.63;;;15.60;47.99
54236;BME280;40151;43.606;1.472;2023-01-30T17:03:29;100726.19;;;15.57;48.14
54236;BME280;40151;43.606;1.472;2023-01-30T17:05:56;100722.69;;;15.56;48.40
54236;BME280;40151;43.606;1.472;2023-01-30T17:08:45;100713.91;;;15.57;48.26
54236;BME280;40151;43.606;1.472;2023-01-30T17:14:19;100733.16;;;15.61;48.23
54236;BME280;40151;43.606;1.472;2023-01-30T17:17:05;100734.91;;;15.61;48.37
54236;BME280;40151;43.606;1.472;2023-01-30T17:19:32;100731.44;;;15.59;48.21
54236;BME280;40151;43.606;1.472;2023-01-30T17:21:58;100741.03;;;15.61;48.29
54236;BME280;40151;43.606;1.472;2023-01-30T17:24:26;100727.00;;;15.61;48.35
54236;BME280;40151;43.606;1.472;2023-01-30T17:27:02;100734.91;;;15.61;48.31
54236;BME280;40151;43.606;1.472;2023-01-30T17:29:30;100743.63;;;15.63;48.64
54236;BME280;40151;43.606;1.472;2023-01-30T17:31:57;100748.88;;;15.63;48.04
54236;BME280;40151;43.606;1.472;2023-01-30T17:34:23;100752.41;;;15.62;48.24
54236;BME280;40151;43.606;1.472;2023-01-30T17:36:52;100747.13;;;15.65;48.24
54236;BME280;40151;43.606;1.472;2023-01-30T17:39:22;100748.88;;;15.63;48.00
54236;BME280;40151;43.606;1.472;2023-01-30T17:41:50;100755.91;;;15.64;48.14
54236;BME280;40151;43.606;1.472;2023-01-30T17:44:16;100755.03;;;15.63;48.17
54236;BME280;40151;43.606;1.472;2023-01-30T17:46:44;100754.13;;;15.64;48.22
54236;BME280;40151;43.606;1.472;2023-01-30T17:49:36;100762.00;;;15.64;48.38
54236;BME280;40151;43.606;1.472;2023-01-30T17:52:01;100755.91;;;15.64;48.17
54236;BME280;40151;43.606;1.472;2023-01-30T17:54:27;100755.00;;;15.65;48.18
54236;BME280;40151;43.606;1.472;2023-01-30T17:56:58;100755.91;;;15.64;48.24
54236;BME280;40151;43.606;1.472;2023-01-30T17:59:24;100757.63;;;15.65;48.29
54236;BME280;40151;43.606;1.472;2023-01-30T18:01:50;100754.16;;;15.63;48.13
54236;BME280;40151;43.606;1.472;2023-01-30T18:04:17;100750.66;;;15.64;48.30
54236;BME280;40151;43.606;1.472;2023-01-30T18:06:47;100749.75;;;15.63;48.26
54236;BME280;40151;43.606;1.472;2023-01-30T18:09:16;100751.50;;;15.64;48.18
54236;BME280;40151;43.606;1.472;2023-01-30T18:11:42;100753.28;;;15.64;48.52
54236;BME280;40151;43.606;1.472;2023-01-30T18:14:07;100750.66;;;15.64;48.18
54236;BME280;40151;43.606;1.472;2023-01-30T18:16:33;100750.56;;;15.67;48.35
54236;BME280;40151;43.606;1.472;2023-01-30T18:19:04;100761.16;;;15.64;48.21
54236;BME280;40151;43.606;1.472;2023-01-30T18:21:32;100770.78;;;15.65;48.42
54236;BME280;40151;43.606;1.472;2023-01-30T18:23:58;100771.63;;;15.67;48.31
54236;BME280;40151;43.606;1.472;2023-01-30T18:26:24;100772.53;;;15.66;48.03
54236;BME280;40151;43.606;1.472;2023-01-30T18:28:50;100775.16;;;15.66;48.10
54236;BME280;40151;43.606;1.472;2023-01-30T18:31:16;100775.16;;;15.66;47.10
54236;BME280;40151;43.606;1.472;2023-01-30T18:33:42;100764.59;;;15.69;47.36
54236;BME280;40151;43.606;1.472;2023-01-30T18:36:13;100763.81;;;15.62;47.13
54236;BME280;40151;43.606;1.472;2023-01-30T18:38:40;100767.28;;;15.63;47.00
54236;BME280;40151;43.606;1.472;2023-01-30T18:41:14;100770.88;;;15.60;47.28
54236;BME280;40151;43.606;1.472;2023-01-30T18:43:40;100765.56;;;15.62;47.46
54236;BME280;40151;43.606;1.472;2023-01-30T18:46:16;100765.56;;;15.62;47.29
54236;BME280;40151;43.606;1.472;2023-01-30T18:48:42;100770.81;;;15.63;47.47
54236;BME280;40151;43.606;1.472;2023-01-30T18:51:13;100767.28;;;15.64;47.43
54236;BME280;40151;43.606;1.472;2023-01-30T18:53:44;100772.53;;;15.66;47.80
54236;BME280;40151;43.606;1.472;2023-01-30T18:56:12;100760.31;;;15.62;47.74
54236;BME280;40151;43.606;1.472;2023-01-30T18:58:38;100766.44;;;15.64;47.79
54236;BME280;40151;43.606;1.472;2023-01-30T19:01:08;100772.50;;;15.67;47.99
54236;BME280;40151;43.606;1.472;2023-01-30T19:03:35;100771.69;;;15.64;47.92
54236;BME280;40151;43.606;1.472;2023-01-30T19:06:01;100776.06;;;15.63;48.00
54236;BME280;40151;43.606;1.472;2023-01-30T19:08:26;100778.69;;;15.65;47.99
54236;BME280;40151;43.606;1.472;2023-01-30T19:10:52;100787.47;;;15.64;48.02
54236;BME280;40151;43.606;1.472;2023-01-30T19:13:17;100796.25;;;15.63;47.91
54236;BME280;40151;43.606;1.472;2023-01-30T19:15:59;100791.88;;;15.63;47.95
54236;BME280;40151;43.606;1.472;2023-01-30T19:18:30;100798.00;;;15.64;47.93
54236;BME280;40151;43.606;1.472;2023-01-30T19:20:59;100795.38;;;15.64;48.03
54236;BME280;40151;43.606;1.472;2023-01-30T19:23:27;100796.25;;;15.63;48.12
54236;BME280;40151;43.606;1.472;2023-01-30T19:25:57;100797.13;;;15.63;47.95
54236;BME280;40151;43.606;1.472;2023-01-30T19:28:25;100803.31;;;15.61;47.91
54236;BME280;40151;43.606;1.472;2023-01-30T19:30:51;100803.28;;;15.64;47.96
54236;BME280;40151;43.606;1.472;2023-01-30T19:33:16;100803.28;;;15.64;48.04
54236;BME280;40151;43.606;1.472;2023-01-30T19:38:23;100805.09;;;15.59;48.19
54236;BME280;40151;43.606;1.472;2023-01-30T19:41:01;100806.00;;;15.57;48.01
54236;BME280;40151;43.606;1.472;2023-01-30T19:43:27;100819.06;;;15.64;48.04
54236;BME280;40151;43.606;1.472;2023-01-30T19:45:58;100819.09;;;15.61;47.87
54236;BME280;40151;43.606;1.472;2023-01-30T19:48:24;100812.03;;;15.63;48.27
54236;BME280;40151;43.606;1.472;2023-01-30T19:50:51;100815.63;;;15.59;48.19
54236;BME280;40151;43.606;1.472;2023-01-30T19:56:29;100815.63;;;15.59;48.14
54236;BME280;40151;43.606;1.472;2023-01-30T20:01:32;100815.56;;;15.62;47.96
54236;BME280;40151;43.606;1.472;2023-01-30T20:04:01;100812.13;;;15.56;48.20
54236;BME280;40151;43.606;1.472;2023-01-30T20:06:30;100817.41;;;15.56;48.01
54236;BME280;40151;43.606;1.472;2023-01-30T20:09:31;100826.09;;;15.62;48.18
54236;BME280;40151;43.606;1.472;2023-01-30T20:22:15;100846.34;;;15.56;47.92
54236;BME280;40151;43.606;1.472;2023-01-30T20:24:41;100847.22;;;15.59;48.33
54236;BME280;40151;43.606;1.472;2023-01-30T20:27:07;100853.31;;;15.59;48.32
54236;BME280;40151;43.606;1.472;2023-01-30T20:29:32;100853.38;;;15.56;48.04
54236;BME280;40151;43.606;1.472;2023-01-30T20:31:58;100861.25;;;15.57;48.17
54236;BME280;40151;43.606;1.472;2023-01-30T20:34:24;100852.47;;;15.59;48.28
54236;BME280;40151;43.606;1.472;2023-01-30T20:52:20;100868.25;;;15.59;48.45
54236;BME280;40151;43.606;1.472;2023-01-30T20:54:46;100874.34;;;15.61;48.40
54236;BME280;40151;43.606;1.472;2023-01-30T20:57:12;100876.16;;;15.57;48.14
54236;BME280;40151;43.606;1.472;2023-01-30T21:04:59;100891.06;;;15.56;48.42
54236;BME280;40151;43.606;1.472;2023-01-30T21:11:19;100891.06;;;15.56;48.50
54236;BME280;40151;43.606;1.472;2023-01-30T21:14:23;100888.47;;;15.55;48.42
54236;BME280;40151;43.606;1.472;2023-01-30T21:16:52;100890.22;;;15.56;48.55
54236;BME280;40151;43.606;1.472;2023-01-30T21:19:17;100891.94;;;15.57;48.57
54236;BME280;40151;43.606;1.472;2023-01-30T21:22:37;100886.69;;;15.57;48.59
54236;BME280;40151;43.606;1.472;2023-01-30T21:25:41;100897.19;;;15.59;48.42
54236;BME280;40151;43.606;1.472;2023-01-30T21:28:07;100888.53;;;15.52;48.27
54236;BME280;40151;43.606;1.472;2023-01-30T21:31:53;100893.75;;;15.53;48.30
54236;BME280;40151;43.606;1.472;2023-01-30T21:35:03;100904.22;;;15.58;48.41
54236;BME280;40151;43.606;1.472;2023-01-30T21:37:50;100906.81;;;15.60;48.68
54236;BME280;40151;43.606;1.472;2023-01-30T21:40:37;100894.69;;;15.51;48.42
54236;BME280;40151;43.606;1.472;2023-01-30T21:43:24;100900.75;;;15.56;48.50
54236;BME280;40151;43.606;1.472;2023-01-30T21:45:57;100901.56;;;15.60;48.64
54236;BME280;40151;43.606;1.472;2023-01-30T21:48:23;100909.53;;;15.55;48.70
54236;BME280;40151;43.606;1.472;2023-01-30T21:50:54;100899.03;;;15.53;48.38
54236;BME280;40151;43.606;1.472;2023-01-30T21:53:47;100902.47;;;15.57;48.65
54236;BME280;40151;43.606;1.472;2023-01-30T21:56:14;100907.72;;;15.59;48.63
54236;BME280;40151;43.606;1.472;2023-01-30T21:58:40;100899.91;;;15.52;48.36
54236;BME280;40151;43.606;1.472;2023-01-30T22:01:16;100901.66;;;15.53;48.53
54236;BME280;40151;43.606;1.472;2023-01-30T22:03:45;100910.34;;;15.59;48.41
54236;BME280;40151;43.606;1.472;2023-01-30T22:06:34;100901.66;;;15.53;48.35
54236;BME280;40151;43.606;1.472;2023-01-30T22:09:14;100903.38;;;15.54;48.38
54236;BME280;40151;43.606;1.472;2023-01-30T22:11:43;100908.63;;;15.56;48.52
54236;BME280;40151;43.606;1.472;2023-01-30T22:14:12;100905.13;;;15.55;48.67
54236;BME280;40151;43.606;1.472;2023-01-30T22:16:38;100919.16;;;15.57;48.41
54236;BME280;40151;43.606;1.472;2023-01-30T22:19:07;100911.19;;;15.59;48.38